Time;durP1;ratioP1;P1;durP2;ratioP2;P2;SDS_P1;SDS_P2;PMS_P1;PMS_P2;Temp;Humidity;BMP_temperature;BMP_pressure;BME280_temperature;BME280_humidity;BME280_pressure;Samples;Min_cycle;Max_cycle;Signal;HPM_P1;HPM_P2
2022/08/14 00:02:15;;;;;;;10.83;6.13;;;21.50;62.90;;;;;;4916601;28;20127;-67
2022/08/14 00:04:41;;;;;;;6.50;4.90;;;21.40;62.90;;;;;;4933562;29;20126;-68
2022/08/14 00:07:07;;;;;;;6.77;4.70;;;21.40;62.90;;;;;;4902940;29;20524;-68
2022/08/14 00:09:34;;;;;;;5.10;4.50;;;21.30;63.00;;;;;;4917083;29;20428;-68
2022/08/14 00:12:00;;;;;;;6.10;4.70;;;21.30;62.90;;;;;;4917678;28;20786;-68
2022/08/14 00:14:27;;;;;;;6.23;4.90;;;21.30;63.00;;;;;;4912818;28;20299;-67
2022/08/14 00:16:53;;;;;;;8.47;5.33;;;21.30;63.10;;;;;;4917751;28;20047;-68
2022/08/14 00:19:19;;;;;;;6.43;4.67;;;21.30;63.20;;;;;;4930264;29;20301;-67
2022/08/14 00:21:45;;;;;;;8.13;4.87;;;21.20;63.30;;;;;;4902129;29;20298;-67
2022/08/14 00:24:11;;;;;;;6.50;4.70;;;21.20;63.40;;;;;;4913334;29;20036;-67
2022/08/14 00:26:36;;;;;;;6.70;4.37;;;21.20;63.30;;;;;;4921541;28;20503;-67
2022/08/14 00:29:02;;;;;;;5.80;5.07;;;21.10;63.80;;;;;;4898128;29;20043;-67
2022/08/14 00:31:29;;;;;;;6.03;4.70;;;21.10;63.70;;;;;;4927259;28;20039;-67
2022/08/14 00:33:55;;;;;;;5.47;4.93;;;21.10;64.30;;;;;;4929310;29;20043;-67
2022/08/14 00:36:23;;;;;;;6.23;5.30;;;21.00;64.30;;;;;;4913173;28;20859;-67
2022/08/14 00:38:48;;;;;;;5.40;4.50;;;21.00;64.40;;;;;;4942172;28;20365;-67
2022/08/14 00:41:14;;;;;;;7.70;5.13;;;21.00;64.30;;;;;;4906499;28;20308;-67
2022/08/14 00:43:40;;;;;;;5.50;4.83;;;20.90;64.30;;;;;;4924561;29;20388;-67
2022/08/14 00:46:09;;;;;;;5.60;4.83;;;20.90;64.50;;;;;;4930529;28;20496;-67
2022/08/14 00:48:36;;;;;;;9.43;5.23;;;20.80;64.50;;;;;;4925735;29;20041;-67
2022/08/14 00:51:05;;;;;;;6.30;5.23;;;20.80;65.00;;;;;;4913787;28;20298;-67
2022/08/14 00:53:31;;;;;;;6.00;4.67;;;20.80;64.90;;;;;;4925311;29;20394;-67
2022/08/14 00:55:57;;;;;;;7.47;5.40;;;20.80;65.10;;;;;;4927398;28;20287;-67
2022/08/14 00:58:29;;;;;;;8.93;5.70;;;20.70;65.20;;;;;;4915132;29;20326;-67
2022/08/14 01:00:56;;;;;;;7.00;4.97;;;20.70;65.20;;;;;;4950313;28;20222;-67
2022/08/14 01:03:23;;;;;;;5.90;5.30;;;20.70;65.30;;;;;;4932620;29;20767;-67
2022/08/14 01:05:51;;;;;;;6.33;5.43;;;20.60;65.50;;;;;;4926923;28;20406;-67
2022/08/14 01:08:19;;;;;;;9.67;5.63;;;20.60;65.60;;;;;;4921509;29;20284;-67
2022/08/14 01:10:50;;;;;;;6.20;5.53;;;20.50;65.70;;;;;;4925868;28;20294;-67
2022/08/14 01:13:28;;;;;;;9.40;5.23;;;20.50;65.90;;;;;;4927831;29;20291;-67
2022/08/14 01:15:56;;;;;;;6.30;5.13;;;20.50;66.10;;;;;;4947749;28;20501;-67
2022/08/14 01:21:11;;;;;;;6.70;5.80;;;20.40;66.10;;;;;;4932107;28;20711;-67
2022/08/14 01:23:46;;;;;;;7.23;5.50;;;20.40;66.10;;;;;;4920976;28;20782;-67
2022/08/14 01:26:14;;;;;;;;;;;20.40;66.30;;;;;;4933422;28;20295;-67
2022/08/14 01:28:41;;;;;;;7.00;6.03;;;20.30;66.40;;;;;;4933771;29;19926;-67
2022/08/14 01:31:13;;;;;;;7.63;5.60;;;20.30;66.10;;;;;;4932592;29;20298;-67
2022/08/14 01:33:40;;;;;;;9.03;6.30;;;20.30;66.40;;;;;;4938391;28;20290;-67
2022/08/14 01:36:08;;;;;;;7.70;6.10;;;20.30;66.40;;;;;;4926854;29;20802;-67
2022/08/14 01:38:34;;;;;;;7.53;5.97;;;20.20;66.60;;;;;;4914418;29;20632;-67
2022/08/14 01:41:01;;;;;;;10.30;5.70;;;20.20;66.40;;;;;;4922616;29;20329;-67
2022/08/14 01:43:29;;;;;;;7.50;5.90;;;20.20;66.70;;;;;;4925871;29;20350;-67
2022/08/14 01:45:59;;;;;;;7.07;5.80;;;20.20;66.70;;;;;;4909980;29;20312;-67
2022/08/14 01:48:30;;;;;;;6.43;5.73;;;20.10;66.70;;;;;;4915076;28;20351;-67
2022/08/14 01:50:56;;;;;;;7.10;6.40;;;20.10;66.70;;;;;;4949229;28;20605;-67
2022/08/14 01:53:22;;;;;;;6.30;5.57;;;20.10;66.90;;;;;;4909374;28;20707;-67
2022/08/14 01:55:50;;;;;;;10.10;6.80;;;20.10;66.80;;;;;;4931633;29;20544;-67
2022/08/14 01:58:17;;;;;;;6.57;5.83;;;20.10;67.00;;;;;;4936172;29;20051;-67
2022/08/14 02:00:43;;;;;;;7.23;5.80;;;20.10;66.90;;;;;;4917528;28;20401;-67
2022/08/14 02:03:08;;;;;;;8.10;6.63;;;20.10;67.00;;;;;;4934078;29;20362;-67
2022/08/14 02:05:34;;;;;;;7.00;5.93;;;20.10;67.00;;;;;;4925415;28;20047;-67
2022/08/14 02:08:01;;;;;;;7.87;6.30;;;20.10;67.00;;;;;;4915700;29;20572;-67
2022/08/14 02:10:27;;;;;;;7.27;6.47;;;20.10;67.00;;;;;;4919377;29;20330;-68
2022/08/14 02:12:55;;;;;;;7.43;6.23;;;20.10;67.20;;;;;;4923513;28;20361;-67
2022/08/14 02:15:22;;;;;;;7.70;6.40;;;20.20;67.20;;;;;;4908614;28;20635;-67
2022/08/14 02:17:51;;;;;;;10.43;6.10;;;20.10;67.30;;;;;;4911877;29;20308;-67
2022/08/14 02:20:19;;;;;;;7.50;6.03;;;20.10;67.40;;;;;;4933660;28;20719;-67
2022/08/14 02:22:45;;;;;;;9.33;6.27;;;20.10;67.70;;;;;;4915952;29;20377;-68
2022/08/14 02:25:11;;;;;;;8.90;6.27;;;20.10;67.70;;;;;;4932241;28;20287;-68
2022/08/14 02:27:38;;;;;;;6.83;6.13;;;20.10;67.80;;;;;;4917324;29;20861;-67
2022/08/14 02:30:04;;;;;;;9.27;7.17;;;20.10;67.90;;;;;;4917505;28;20521;-68
2022/08/14 02:32:33;;;;;;;8.47;6.37;;;20.10;68.20;;;;;;4933326;29;20298;-67
2022/08/14 02:34:59;;;;;;;7.70;6.70;;;20.10;68.20;;;;;;4912309;28;20282;-68
2022/08/14 02:37:25;;;;;;;7.10;6.40;;;20.10;68.10;;;;;;4928983;29;20287;-67
2022/08/14 02:39:51;;;;;;;7.93;6.97;;;20.00;68.10;;;;;;4937467;28;20043;-67
2022/08/14 02:42:21;;;;;;;8.03;6.90;;;20.00;68.50;;;;;;4893396;29;20407;-68
2022/08/14 02:44:47;;;;;;;8.00;6.73;;;20.00;68.60;;;;;;4907277;28;20050;-68
2022/08/14 02:47:14;;;;;;;7.93;7.13;;;20.00;68.60;;;;;;4917021;28;20337;-68
2022/08/14 02:49:40;;;;;;;7.93;7.00;;;20.00;68.90;;;;;;4932302;28;20289;-67
2022/08/14 02:52:07;;;;;;;8.30;6.50;;;20.00;68.90;;;;;;4915730;28;20338;-67
2022/08/14 02:54:34;;;;;;;9.03;7.90;;;20.00;68.80;;;;;;4929992;28;20295;-67
2022/08/14 02:57:05;;;;;;;8.00;7.20;;;20.00;68.80;;;;;;4906328;29;20300;-67
2022/08/14 02:59:32;;;;;;;8.80;6.83;;;20.00;69.00;;;;;;4931997;28;20785;-67
2022/08/14 03:02:00;;;;;;;10.37;6.60;;;19.90;69.10;;;;;;4909650;28;20381;-67
2022/08/14 03:04:27;;;;;;;9.27;7.17;;;20.00;69.10;;;;;;4906175;29;20981;-67
2022/08/14 03:06:53;;;;;;;8.80;7.27;;;20.00;69.30;;;;;;4933025;29;20885;-68
2022/08/14 03:09:19;;;;;;;8.93;7.73;;;20.00;69.40;;;;;;4941405;28;20279;-67
2022/08/14 03:11:45;;;;;;;10.13;7.70;;;19.90;69.30;;;;;;4922514;29;20287;-68
2022/08/14 03:14:11;;;;;;;9.03;7.53;;;19.90;69.50;;;;;;4915755;29;20039;-67
2022/08/14 03:16:38;;;;;;;8.40;7.50;;;19.90;69.80;;;;;;4905754;29;20046;-68
2022/08/14 03:19:08;;;;;;;8.93;7.70;;;19.90;69.90;;;;;;4912900;29;21092;-67
2022/08/14 03:21:35;;;;;;;9.47;7.80;;;19.80;70.10;;;;;;4909595;29;20314;-67
2022/08/14 03:24:13;;;;;;;10.20;7.33;;;19.80;70.10;;;;;;4923946;29;20303;-67
2022/08/14 03:26:40;;;;;;;8.63;7.73;;;19.80;70.20;;;;;;4918143;29;20279;-65
2022/08/14 03:29:07;;;;;;;9.20;7.53;;;19.70;70.10;;;;;;4910845;29;20278;-65
2022/08/14 03:31:39;;;;;;;10.00;7.67;;;19.70;70.20;;;;;;4919346;28;20390;-65
2022/08/14 03:34:08;;;;;;;11.20;8.30;;;19.70;70.30;;;;;;4936125;29;20718;-65
2022/08/14 03:36:35;;;;;;;9.23;7.43;;;19.70;70.30;;;;;;4935975;28;20290;-65
2022/08/14 03:39:04;;;;;;;9.27;8.27;;;19.70;70.40;;;;;;4936285;29;20493;-65
2022/08/14 03:41:30;;;;;;;9.27;7.97;;;19.60;70.40;;;;;;4935438;28;20326;-65
2022/08/14 03:44:00;;;;;;;8.67;7.67;;;19.60;70.60;;;;;;4913937;29;20275;-65
2022/08/14 03:46:32;;;;;;;9.70;7.87;;;19.60;70.70;;;;;;4926227;28;20047;-65
2022/08/14 03:49:00;;;;;;;10.87;8.50;;;19.50;70.80;;;;;;4930762;29;20743;-67
2022/08/14 03:51:27;;;;;;;8.97;8.00;;;19.50;70.80;;;;;;4936394;28;20286;-67
2022/08/14 03:53:57;;;;;;;12.73;8.20;;;19.50;70.80;;;;;;4903242;28;20329;-67
2022/08/14 03:56:25;;;;;;;11.27;8.73;;;19.40;70.80;;;;;;4931764;29;20300;-67
2022/08/14 03:58:54;;;;;;;9.50;7.90;;;19.40;71.00;;;;;;4931003;28;20298;-67
2022/08/14 04:01:22;;;;;;;11.87;8.70;;;19.40;71.10;;;;;;4935025;28;20326;-67
2022/08/14 04:03:49;;;;;;;8.87;7.93;;;19.40;71.00;;;;;;4935348;29;20289;-67
2022/08/14 04:06:16;;;;;;;11.30;8.77;;;19.30;71.10;;;;;;4919321;29;20279;-67
2022/08/14 04:08:42;;;;;;;9.57;8.57;;;19.30;71.10;;;;;;4939498;29;20299;-67
2022/08/14 04:11:09;;;;;;;14.27;9.37;;;19.30;71.30;;;;;;4908740;29;20286;-67
2022/08/14 04:13:38;;;;;;;12.37;9.30;;;19.30;71.30;;;;;;4926952;29;20366;-67
2022/08/14 04:16:06;;;;;;;12.17;8.63;;;19.20;71.40;;;;;;4943712;28;20297;-68
2022/08/14 04:18:33;;;;;;;11.33;8.90;;;19.20;71.60;;;;;;4926355;28;20722;-68
2022/08/14 04:20:59;;;;;;;12.73;9.73;;;19.20;71.60;;;;;;4926798;28;20314;-68
2022/08/14 04:23:25;;;;;;;12.77;9.03;;;19.20;71.50;;;;;;4958757;28;20322;-67
2022/08/14 04:25:52;;;;;;;12.03;8.90;;;19.20;71.50;;;;;;4910570;28;20326;-67
2022/08/14 04:28:19;;;;;;;11.50;9.40;;;19.20;71.50;;;;;;4932979;28;20055;-67
2022/08/14 04:30:45;;;;;;;10.60;9.50;;;19.20;71.50;;;;;;4951447;28;20366;-67
2022/08/14 04:33:12;;;;;;;12.43;9.43;;;19.20;71.20;;;;;;4916958;28;20374;-67
2022/08/14 04:35:37;;;;;;;11.77;9.53;;;19.20;71.30;;;;;;4915669;29;20078;-68
2022/08/14 04:43:41;;;;;;;11.82;9.32;;;19.20;71.40;;;;;;4921469;29;20785;-68
2022/08/14 04:46:12;;;;;;;10.63;9.03;;;19.20;71.30;;;;;;4946049;28;20075;-68
2022/08/14 04:48:38;;;;;;;9.83;8.83;;;19.20;71.50;;;;;;4938055;29;20290;-67
2022/08/14 04:51:11;;;;;;;12.30;8.73;;;19.20;71.40;;;;;;4947217;28;20637;-67
2022/08/14 04:53:41;;;;;;;9.80;8.60;;;19.20;71.40;;;;;;4928786;29;20060;-67
2022/08/14 04:56:07;;;;;;;11.93;9.80;;;19.30;71.40;;;;;;4902681;29;20436;-68
2022/08/14 04:58:33;;;;;;;11.23;9.80;;;19.30;71.60;;;;;;4888708;29;20736;-67
2022/08/14 05:01:01;;;;;;;12.53;10.13;;;19.40;71.40;;;;;;4909375;29;20119;-67
2022/08/14 05:03:30;;;;;;;9.93;8.90;;;19.40;71.30;;;;;;4908184;29;20804;-68
2022/08/14 05:06:05;;;;;;;10.23;9.20;;;19.40;71.50;;;;;;4909394;29;20296;-67
2022/08/14 05:08:32;;;;;;;12.77;9.95;;;19.40;71.70;;;;;;4900768;29;20288;-68
2022/08/14 05:10:59;;;;;;;10.43;9.40;;;19.40;71.60;;;;;;4895158;29;20044;-68
2022/08/14 05:13:28;;;;;;;11.27;9.77;;;19.50;71.50;;;;;;4904616;29;20807;-68
2022/08/14 05:15:57;;;;;;;13.37;10.07;;;19.60;71.70;;;;;;4906906;29;20289;-67
2022/08/14 05:18:30;;;;;;;11.83;9.43;;;19.60;71.70;;;;;;4903546;29;20289;-67
2022/08/14 05:20:58;;;;;;;18.17;9.73;;;19.60;71.70;;;;;;4892093;29;20311;-67
2022/08/14 05:23:27;;;;;;;13.47;10.10;;;19.70;71.70;;;;;;4910194;29;20359;-67
2022/08/14 05:26:00;;;;;;;11.47;9.43;;;19.70;71.30;;;;;;4905028;29;20304;-67
2022/08/14 05:28:29;;;;;;;13.90;10.33;;;19.80;71.50;;;;;;4909570;29;20825;-67
2022/08/14 05:30:58;;;;;;;11.73;9.57;;;19.80;71.40;;;;;;4892978;29;20288;-67
2022/08/14 05:33:27;;;;;;;11.70;10.23;;;19.80;71.30;;;;;;4911630;29;20343;-67
2022/08/14 05:35:59;;;;;;;11.57;10.20;;;19.90;71.10;;;;;;4892151;29;20284;-67
2022/08/14 05:38:35;;;;;;;11.23;9.70;;;19.90;71.10;;;;;;4910105;29;20645;-67
2022/08/14 05:41:07;;;;;;;11.50;10.17;;;20.00;71.00;;;;;;4905447;29;20967;-67
2022/08/14 05:43:33;;;;;;;11.73;9.77;;;20.00;71.10;;;;;;4910919;29;20319;-67
2022/08/14 05:46:00;;;;;;;12.17;10.20;;;20.10;70.90;;;;;;4904769;29;20383;-67
2022/08/14 05:48:27;;;;;;;13.07;10.37;;;20.10;70.80;;;;;;4910775;29;20378;-67
2022/08/14 05:50:54;;;;;;;11.43;10.13;;;20.20;70.70;;;;;;4872157;29;20848;-67
2022/08/14 05:53:24;;;;;;;11.77;10.47;;;20.20;70.70;;;;;;4924733;29;20350;-67
2022/08/14 05:55:51;;;;;;;13.27;10.23;;;20.30;70.70;;;;;;4927771;29;20295;-67
2022/08/14 05:58:17;;;;;;;11.20;9.97;;;20.30;70.60;;;;;;4901865;29;20628;-67
2022/08/14 06:00:45;;;;;;;10.57;9.43;;;20.40;70.60;;;;;;4932603;29;20314;-67
2022/08/14 06:03:17;;;;;;;10.57;9.47;;;20.50;70.50;;;;;;4914230;29;20295;-67
2022/08/14 06:05:44;;;;;;;13.20;9.60;;;20.60;70.30;;;;;;4950989;28;20287;-67
2022/08/14 06:08:15;;;;;;;11.97;9.43;;;20.70;70.20;;;;;;4893249;29;20307;-67
2022/08/14 06:10:41;;;;;;;10.97;9.73;;;20.80;70.20;;;;;;4920244;28;20292;-67
2022/08/14 06:13:07;;;;;;;10.47;8.60;;;20.90;70.00;;;;;;4920273;29;20291;-67
2022/08/14 06:15:32;;;;;;;10.53;9.37;;;21.00;69.80;;;;;;4888405;28;20806;-67
2022/08/14 06:18:00;;;;;;;10.50;9.03;;;21.00;69.70;;;;;;4903610;29;20385;-67
2022/08/14 06:20:26;;;;;;;12.13;9.33;;;21.20;69.70;;;;;;4929068;28;20507;-67
2022/08/14 06:22:52;;;;;;;11.17;8.80;;;21.30;69.40;;;;;;4913409;29;20283;-67
2022/08/14 06:25:18;;;;;;;11.17;9.33;;;21.40;69.30;;;;;;4934537;28;20091;-67
2022/08/14 06:27:45;;;;;;;10.73;8.97;;;21.50;68.80;;;;;;4932694;28;20086;-67
2022/08/14 06:30:14;;;;;;;10.67;9.40;;;21.60;68.40;;;;;;4918108;29;20043;-67
2022/08/14 06:32:40;;;;;;;11.30;8.57;;;21.70;68.20;;;;;;4934464;29;20295;-67
2022/08/14 06:35:07;;;;;;;10.97;8.80;;;21.80;68.00;;;;;;4939203;28;20468;-67
2022/08/14 06:37:48;;;;;;;10.60;8.30;;;21.90;68.00;;;;;;4928277;29;20075;-67
2022/08/14 06:40:26;;;;;;;9.40;8.37;;;22.00;67.90;;;;;;4916632;29;20043;-67
2022/08/14 06:42:52;;;;;;;14.57;8.70;;;22.20;67.80;;;;;;4902551;28;20055;-67
2022/08/14 06:45:18;;;;;;;10.73;8.20;;;22.30;67.60;;;;;;4931523;29;20435;-67
2022/08/14 06:47:45;;;;;;;11.07;8.93;;;22.50;67.10;;;;;;4935364;28;20048;-67
2022/08/14 06:50:14;;;;;;;9.63;8.60;;;22.60;66.70;;;;;;4911788;28;20377;-67
2022/08/14 06:52:40;;;;;;;17.03;8.93;;;22.90;66.10;;;;;;4908146;28;20376;-67
2022/08/14 06:55:08;;;;;;;10.23;9.17;;;23.10;65.70;;;;;;4926844;29;20075;-67
2022/08/14 06:57:39;;;;;;;10.57;8.20;;;23.30;65.30;;;;;;4935273;29;20049;-67
2022/08/14 07:00:08;;;;;;;8.63;7.73;;;23.40;64.90;;;;;;4934779;29;20035;-66
2022/08/14 07:08:03;;;;;;;7.65;6.88;;;23.50;64.20;;;;;;4910557;29;20040;-66
2022/08/14 07:10:29;;;;;;;9.77;7.73;;;23.60;64.30;;;;;;4908892;28;20058;-66
2022/08/14 07:12:55;;;;;;;8.97;7.30;;;23.60;64.40;;;;;;4933618;29;20117;-67
2022/08/14 07:15:20;;;;;;;9.10;7.07;;;23.70;63.90;;;;;;4923471;28;20039;-68
2022/08/14 07:17:48;;;;;;;8.27;6.73;;;23.80;63.60;;;;;;4933330;29;20039;-67
2022/08/14 07:20:14;;;;;;;10.13;7.20;;;23.90;62.90;;;;;;4934551;28;20050;-67
2022/08/14 07:22:40;;;;;;;9.97;8.10;;;23.90;62.70;;;;;;4933895;28;20035;-68
2022/08/14 07:25:06;;;;;;;8.27;6.93;;;24.00;62.80;;;;;;4933751;28;20047;-66
2022/08/14 07:27:31;;;;;;;8.47;7.57;;;24.10;62.80;;;;;;4913203;29;20040;-66
2022/08/14 07:29:57;;;;;;;7.73;6.93;;;24.10;62.40;;;;;;4922859;28;20392;-67
2022/08/14 07:32:23;;;;;;;8.17;7.23;;;24.20;62.30;;;;;;4925719;29;20496;-67
2022/08/14 07:34:48;;;;;;;8.67;7.20;;;24.30;62.30;;;;;;4913824;29;20114;-67
2022/08/14 07:37:14;;;;;;;9.20;7.03;;;24.40;62.00;;;;;;4901050;29;20039;-67
2022/08/14 07:39:40;;;;;;;8.00;7.20;;;24.50;61.70;;;;;;4916543;28;20039;-67
2022/08/14 07:42:06;;;;;;;8.33;6.87;;;24.60;61.40;;;;;;4931221;29;20079;-67
2022/08/14 07:44:32;;;;;;;7.70;6.70;;;24.70;60.80;;;;;;4933505;28;20050;-67
2022/08/14 07:46:58;;;;;;;7.97;7.17;;;24.80;60.60;;;;;;4926498;28;20130;-68
2022/08/14 07:49:25;;;;;;;9.50;6.87;;;24.90;60.70;;;;;;4923888;28;20036;-68
2022/08/14 07:51:50;;;;;;;8.67;7.20;;;25.00;60.40;;;;;;4930831;29;20050;-68
2022/08/14 07:54:17;;;;;;;8.80;7.07;;;25.10;60.10;;;;;;4919968;28;20048;-68
2022/08/14 07:56:44;;;;;;;7.87;6.30;;;25.10;60.00;;;;;;4902308;29;20043;-68
2022/08/14 07:59:10;;;;;;;9.13;6.60;;;25.30;60.30;;;;;;4939751;28;20498;-68
2022/08/14 08:01:36;;;;;;;6.60;6.00;;;25.40;60.10;;;;;;4911437;28;20511;-68
2022/08/14 08:04:02;;;;;;;7.30;6.60;;;25.60;59.50;;;;;;4951128;28;20055;-68
2022/08/14 08:06:29;;;;;;;7.43;6.50;;;25.70;59.00;;;;;;4915237;29;20047;-68
2022/08/14 08:08:59;;;;;;;5.93;5.33;;;25.80;58.80;;;;;;4930571;28;20035;-68
2022/08/14 08:11:31;;;;;;;7.23;6.50;;;25.90;58.70;;;;;;4906530;29;20771;-68
2022/08/14 08:13:59;;;;;;;7.07;6.30;;;26.00;58.00;;;;;;4916223;28;20464;-68
2022/08/14 08:16:27;;;;;;;8.20;6.37;;;26.10;58.70;;;;;;4891850;29;20050;-68
2022/08/14 08:18:52;;;;;;;6.83;6.13;;;26.20;58.00;;;;;;4928540;29;20047;-68
2022/08/14 08:21:18;;;;;;;7.13;6.43;;;26.30;57.90;;;;;;4933571;29;20530;-68
2022/08/14 08:23:44;;;;;;;8.77;6.60;;;26.40;58.10;;;;;;4931121;28;20047;-68
2022/08/14 08:26:10;;;;;;;8.47;6.83;;;26.40;57.60;;;;;;4930244;28;20161;-68
2022/08/14 08:28:35;;;;;;;7.43;6.37;;;26.50;57.70;;;;;;4932103;29;20515;-67
2022/08/14 08:31:05;;;;;;;7.73;7.00;;;26.60;58.10;;;;;;4926401;28;20095;-67
2022/08/14 08:33:34;;;;;;;7.77;6.47;;;26.70;57.50;;;;;;4929816;29;20257;-68
2022/08/14 08:36:04;;;;;;;6.37;5.77;;;26.80;57.30;;;;;;4935298;29;20397;-68
2022/08/14 08:38:30;;;;;;;7.20;6.50;;;26.90;57.10;;;;;;4927487;29;20051;-67
2022/08/14 08:40:58;;;;;;;7.83;6.90;;;27.00;57.00;;;;;;4935121;29;20042;-68
2022/08/14 08:43:28;;;;;;;8.00;6.20;;;27.20;56.30;;;;;;4935008;29;20051;-67
2022/08/14 08:45:55;;;;;;;7.00;6.23;;;27.20;56.40;;;;;;4933471;29;20552;-67
2022/08/14 08:48:27;;;;;;;6.47;5.80;;;27.40;56.10;;;;;;4938561;29;20050;-67
2022/08/14 08:50:54;;;;;;;6.53;5.73;;;27.50;55.70;;;;;;4921869;29;20043;-68
2022/08/14 08:53:20;;;;;;;8.73;6.00;;;27.60;54.80;;;;;;4930033;29;20059;-68
2022/08/14 08:55:46;;;;;;;6.30;5.70;;;27.70;54.50;;;;;;4916851;29;20050;-67
2022/08/14 08:58:17;;;;;;;7.53;5.90;;;27.70;54.70;;;;;;4937682;28;20129;-68
2022/08/14 09:00:50;;;;;;;6.30;5.53;;;27.80;54.50;;;;;;4908561;29;20039;-68
2022/08/14 09:03:20;;;;;;;6.17;5.60;;;27.90;54.30;;;;;;4915394;29;20407;-68
2022/08/14 09:05:50;;;;;;;5.97;5.40;;;28.10;52.90;;;;;;4945088;28;20039;-68
2022/08/14 09:08:19;;;;;;;6.47;5.73;;;28.20;52.80;;;;;;4946761;28;20058;-68
2022/08/14 09:10:46;;;;;;;9.23;5.63;;;28.30;52.00;;;;;;4913871;28;20054;-68
2022/08/14 09:13:16;;;;;;;5.73;5.20;;;28.30;52.00;;;;;;4918145;29;20050;-68
2022/08/14 09:15:44;;;;;;;6.23;5.60;;;28.40;52.20;;;;;;4919424;28;20070;-68
2022/08/14 09:18:11;;;;;;;6.43;4.90;;;28.50;51.50;;;;;;4910614;29;20076;-67
2022/08/14 09:20:39;;;;;;;7.10;5.27;;;28.60;51.00;;;;;;4918450;29;20559;-67
2022/08/14 09:23:06;;;;;;;6.27;4.73;;;28.60;50.90;;;;;;4905493;29;20063;-67
2022/08/14 09:25:32;;;;;;;5.43;4.93;;;28.70;51.20;;;;;;4907501;29;20031;-67
2022/08/14 09:27:58;;;;;;;6.57;5.10;;;28.90;51.20;;;;;;4914450;29;20043;-68
2022/08/14 09:30:24;;;;;;;6.00;5.40;;;29.00;51.10;;;;;;4917466;29;20456;-68
2022/08/14 09:33:02;;;;;;;7.37;5.50;;;29.10;50.40;;;;;;4933024;28;20130;-68
2022/08/14 09:35:44;;;;;;;5.43;4.90;;;29.20;49.40;;;;;;4932669;29;20874;-68
2022/08/14 09:38:18;;;;;;;5.67;5.10;;;29.30;49.60;;;;;;4932863;28;20039;-68
2022/08/14 09:40:56;;;;;;;;;;;29.30;50.10;;;;;;4933175;29;20047;-67
2022/08/14 09:43:25;;;;;;;6.47;5.17;;;29.30;49.80;;;;;;4950417;28;19918;-68
2022/08/14 09:45:56;;;;;;;6.20;5.00;;;29.40;49.60;;;;;;4932574;29;20050;-67
2022/08/14 09:48:23;;;;;;;7.30;5.57;;;29.50;49.50;;;;;;4930528;29;20047;-68
2022/08/14 09:50:54;;;;;;;5.60;5.03;;;29.60;49.50;;;;;;4916486;29;20043;-68
2022/08/14 09:53:46;;;;;;;6.30;5.00;;;29.60;48.80;;;;;;4931666;29;20078;-68
2022/08/14 09:56:13;;;;;;;5.53;5.03;;;29.70;49.00;;;;;;4930919;28;20050;-68
2022/08/14 09:58:44;;;;;;;6.93;5.30;;;29.80;48.80;;;;;;4931955;29;20392;-68
2022/08/14 10:01:16;;;;;;;5.90;5.13;;;29.80;48.60;;;;;;4926706;29;20167;-67
2022/08/14 10:03:48;;;;;;;7.23;6.17;;;29.90;48.30;;;;;;4930286;29;20043;-68
2022/08/14 10:06:26;;;;;;;5.63;5.13;;;30.00;48.20;;;;;;4929216;29;20052;-68
2022/08/14 10:09:02;;;;;;;6.13;5.00;;;30.00;48.80;;;;;;4930890;28;20047;-68
2022/08/14 10:11:34;;;;;;;5.80;4.80;;;30.10;47.90;;;;;;4933378;29;20046;-68
2022/08/14 10:14:10;;;;;;;5.90;5.17;;;30.20;47.40;;;;;;4906128;28;20071;-68
2022/08/14 10:16:42;;;;;;;8.53;5.90;;;30.20;46.60;;;;;;4932292;29;20046;-68
2022/08/14 10:19:15;;;;;;;5.83;5.33;;;30.20;47.00;;;;;;4928964;29;20039;-69
2022/08/14 10:21:59;;;;;;;7.23;5.23;;;30.20;47.50;;;;;;4925501;29;20122;-69
2022/08/14 10:24:38;;;;;;;6.90;5.20;;;30.20;47.30;;;;;;4928920;29;20047;-69
2022/08/14 10:27:17;;;;;;;6.10;5.33;;;30.30;46.90;;;;;;4920797;28;20535;-68
2022/08/14 10:29:47;;;;;;;5.90;5.07;;;30.40;47.00;;;;;;4930840;29;20057;-68
2022/08/14 10:32:13;;;;;;;5.47;4.97;;;30.50;47.30;;;;;;4925642;29;20527;-68
2022/08/14 10:34:39;;;;;;;6.63;5.40;;;30.60;46.40;;;;;;4920016;29;20047;-68
2022/08/14 10:37:15;;;;;;;6.57;5.47;;;30.60;46.70;;;;;;4921461;29;20536;-68
2022/08/14 10:39:43;;;;;;;6.40;5.27;;;30.70;45.50;;;;;;4948458;28;20053;-68
2022/08/14 10:42:11;;;;;;;6.87;5.30;;;30.70;45.80;;;;;;4922358;29;20126;-68
2022/08/14 10:44:47;;;;;;;5.60;5.10;;;30.70;46.00;;;;;;4915109;28;20039;-68
2022/08/14 10:47:17;;;;;;;6.47;5.60;;;30.70;45.60;;;;;;4923822;29;20467;-69
2022/08/14 10:49:55;;;;;;;6.40;4.90;;;30.80;45.30;;;;;;4911104;28;20035;-69
2022/08/14 10:52:24;;;;;;;5.20;4.73;;;30.70;45.90;;;;;;4930718;28;20408;-68
2022/08/14 10:54:51;;;;;;;6.57;5.10;;;30.80;45.80;;;;;;4930115;29;20095;-68
2022/08/14 10:57:23;;;;;;;6.40;5.47;;;30.90;44.60;;;;;;4932511;28;20748;-68
2022/08/14 11:00:12;;;;;;;5.63;4.70;;;30.80;46.10;;;;;;4910698;29;20044;-68
2022/08/14 11:02:40;;;;;;;6.17;5.17;;;31.00;45.40;;;;;;4936393;28;20051;-68
2022/08/14 11:05:18;;;;;;;6.53;5.20;;;31.10;44.70;;;;;;4909077;29;20049;-68
2022/08/14 11:07:59;;;;;;;7.17;5.03;;;31.10;44.90;;;;;;4896661;28;20277;-68
2022/08/14 11:10:46;;;;;;;5.97;4.87;;;31.10;44.30;;;;;;4929402;29;20054;-68
2022/08/14 11:13:21;;;;;;;5.37;4.80;;;31.20;45.40;;;;;;4934375;28;20471;-68
2022/08/14 11:15:48;;;;;;;5.50;5.00;;;31.30;44.40;;;;;;4947711;28;20047;-68
2022/08/14 11:18:15;;;;;;;6.60;5.00;;;31.30;44.20;;;;;;4917801;29;20129;-68
2022/08/14 11:20:54;;;;;;;6.23;5.10;;;31.30;43.60;;;;;;4906794;29;20040;-68
2022/08/14 11:23:24;;;;;;;5.93;4.70;;;31.40;43.90;;;;;;4908987;29;20048;-69
2022/08/14 11:25:51;;;;;;;5.03;4.57;;;31.50;43.70;;;;;;4910477;28;20101;-69
2022/08/14 11:28:22;;;;;;;4.67;4.20;;;31.50;43.00;;;;;;4927020;28;20047;-69
2022/08/14 11:30:50;;;;;;;5.57;4.53;;;31.50;43.60;;;;;;4911259;29;20129;-69
2022/08/14 11:33:22;;;;;;;6.40;4.97;;;31.60;43.70;;;;;;4917038;28;20047;-67
2022/08/14 11:35:48;;;;;;;5.67;4.73;;;31.70;43.70;;;;;;4919533;29;20106;-69
2022/08/14 11:38:15;;;;;;;6.70;4.87;;;31.70;43.20;;;;;;4936430;28;20507;-69
2022/08/14 11:40:42;;;;;;;5.20;4.70;;;31.80;42.40;;;;;;4916150;29;20565;-68
2022/08/14 11:43:08;;;;;;;5.67;4.83;;;31.70;42.80;;;;;;4903154;28;20035;-68
2022/08/14 11:45:37;;;;;;;5.07;4.57;;;31.70;42.70;;;;;;4910171;29;20400;-68
2022/08/14 11:48:19;;;;;;;5.47;4.73;;;31.80;42.30;;;;;;4948766;28;20043;-68
2022/08/14 11:50:46;;;;;;;5.53;4.43;;;31.80;42.20;;;;;;4932783;29;20051;-68
2022/08/14 11:53:21;;;;;;;4.97;4.07;;;31.90;42.40;;;;;;4933653;29;20581;-68
2022/08/14 11:55:53;;;;;;;7.20;4.80;;;32.00;42.30;;;;;;4933135;29;20054;-68
2022/08/14 11:58:28;;;;;;;5.20;4.37;;;32.00;42.60;;;;;;4934310;29;20039;-68
2022/08/14 12:01:00;;;;;;;4.57;4.00;;;32.10;42.20;;;;;;4935117;28;20042;-69
2022/08/14 12:03:48;;;;;;;4.53;4.13;;;32.20;42.40;;;;;;4935285;29;20047;-69
2022/08/14 12:06:17;;;;;;;5.63;4.10;;;32.20;42.80;;;;;;4930163;28;20043;-69
2022/08/14 12:08:45;;;;;;;6.23;4.60;;;32.30;41.40;;;;;;4928402;29;20043;-69
2022/08/14 12:11:13;;;;;;;7.90;4.40;;;32.30;41.40;;;;;;4914075;29;20039;-69
2022/08/14 12:13:41;;;;;;;4.67;3.90;;;32.40;41.10;;;;;;4934321;28;20051;-68
2022/08/14 12:16:11;;;;;;;5.27;3.73;;;32.30;42.00;;;;;;4900978;29;20487;-68
2022/08/14 12:18:41;;;;;;;4.60;4.20;;;32.30;41.60;;;;;;4934700;28;20439;-69
2022/08/14 12:21:26;;;;;;;4.73;4.33;;;32.20;41.50;;;;;;4931363;28;20070;-69
2022/08/14 12:24:03;;;;;;;4.63;4.23;;;32.30;41.30;;;;;;4932682;28;20039;-69
2022/08/14 12:26:29;;;;;;;5.00;4.27;;;32.30;40.90;;;;;;4919241;28;20074;-69
2022/08/14 12:29:24;;;;;;;4.47;4.00;;;32.30;41.70;;;;;;4915267;28;20078;-69
2022/08/14 12:32:02;;;;;;;4.40;4.00;;;32.50;41.40;;;;;;4906229;29;20059;-69
2022/08/14 12:34:33;;;;;;;5.77;4.57;;;32.70;41.20;;;;;;4928372;29;20447;-69
2022/08/14 12:37:07;;;;;;;4.45;4.00;;;32.70;41.40;;;;;;4950116;28;20039;-69
2022/08/14 12:39:35;;;;;;;5.13;4.50;;;32.90;41.00;;;;;;4917266;28;20055;-70
2022/08/14 12:42:08;;;;;;;3.77;3.47;;;33.00;40.60;;;;;;4912890;29;20031;-69
2022/08/14 12:44:41;;;;;;;4.90;4.00;;;33.00;40.30;;;;;;4933170;28;20047;-69
2022/08/14 12:47:15;;;;;;;5.32;3.80;;;33.00;40.30;;;;;;4907587;28;20047;-68
2022/08/14 12:49:53;;;;;;;4.20;3.85;;;33.00;40.40;;;;;;4932208;28;20042;-69
2022/08/14 12:52:31;;;;;;;4.28;3.85;;;33.10;40.70;;;;;;4916316;29;20046;-69
2022/08/14 12:55:04;;;;;;;4.97;3.83;;;32.90;40.00;;;;;;4901078;29;20063;-69
2022/08/14 12:57:41;;;;;;;5.07;4.28;;;32.70;40.20;;;;;;4933243;29;20047;-68
2022/08/14 13:00:23;;;;;;;4.45;4.05;;;32.60;41.10;;;;;;4929497;29;20039;-68
2022/08/14 13:02:50;;;;;;;4.80;4.28;;;32.60;41.20;;;;;;4930632;29;20050;-68
2022/08/14 13:05:21;;;;;;;4.40;4.00;;;32.70;40.80;;;;;;4931578;29;20101;-68
2022/08/14 13:07:50;;;;;;;5.20;4.00;;;32.80;41.10;;;;;;4948126;28;20039;-68
2022/08/14 13:10:20;;;;;;;5.38;4.38;;;33.00;40.30;;;;;;4932384;29;20047;-68